Time;durP1;ratioP1;P1;durP2;ratioP2;P2;SDS_P1;SDS_P2;PMS_P1;PMS_P2;Temp;Humidity;BMP_temperature;BMP_pressure;BME280_temperature;BME280_humidity;BME280_pressure;Samples;Min_cycle;Max_cycle;Signal;HPM_P1;HPM_P2
2023/09/18 00:01:39;;;;;;;10.15;2.47;;;24.20;90.30;;;;;;5033989;28;20132;-56
2023/09/18 00:04:05;;;;;;;5.30;2.45;;;24.10;90.30;;;;;;5068461;28;20104;-56
2023/09/18 00:06:30;;;;;;;3.92;2.47;;;24.10;90.30;;;;;;5050495;28;20041;-56
2023/09/18 00:08:56;;;;;;;4.82;2.50;;;24.10;90.30;;;;;;5068371;28;20043;-57
2023/09/18 00:11:22;;;;;;;3.97;2.30;;;24.10;90.40;;;;;;5068212;28;20045;-56
2023/09/18 00:13:47;;;;;;;4.28;2.28;;;24.10;90.40;;;;;;5050258;28;20037;-56
2023/09/18 00:16:13;;;;;;;5.22;2.20;;;24.10;90.50;;;;;;5050371;28;20041;-56
2023/09/18 00:18:38;;;;;;;3.95;2.63;;;24.10;90.50;;;;;;5050035;28;20242;-57
2023/09/18 00:21:06;;;;;;;4.75;2.35;;;24.10;90.50;;;;;;5050289;28;20041;-57
2023/09/18 00:23:32;;;;;;;4.15;2.47;;;24.00;90.50;;;;;;5017993;28;20053;-57
2023/09/18 00:25:57;;;;;;;4.82;2.30;;;24.00;90.50;;;;;;5068129;28;20029;-56
2023/09/18 00:28:23;;;;;;;5.13;2.47;;;24.00;90.60;;;;;;5050069;28;20028;-57
2023/09/18 00:30:49;;;;;;;3.95;2.30;;;24.00;90.50;;;;;;5050070;28;20036;-56
2023/09/18 00:33:15;;;;;;;3.58;2.70;;;24.00;90.50;;;;;;5033658;28;20099;-56
2023/09/18 00:35:44;;;;;;;2.85;2.10;;;23.90;90.50;;;;;;5067753;28;20029;-56
2023/09/18 00:38:10;;;;;;;3.70;2.33;;;23.90;90.50;;;;;;5050566;28;20064;-57
2023/09/18 00:40:36;;;;;;;7.97;2.40;;;24.00;90.60;;;;;;5049975;28;20422;-57
2023/09/18 00:43:02;;;;;;;6.47;2.45;;;23.90;90.60;;;;;;5033342;28;20032;-56
2023/09/18 00:45:27;;;;;;;2.80;2.17;;;23.90;90.70;;;;;;5067621;28;20085;-57
2023/09/18 00:47:54;;;;;;;3.72;2.03;;;23.90;90.70;;;;;;5049523;28;20033;-56
2023/09/18 00:50:19;;;;;;;4.00;2.30;;;23.90;90.70;;;;;;5049804;28;20033;-56
2023/09/18 00:52:45;;;;;;;2.63;2.30;;;23.90;90.70;;;;;;5067313;28;20056;-56
2023/09/18 00:55:11;;;;;;;2.45;1.92;;;23.80;90.70;;;;;;5049691;28;20029;-56
2023/09/18 00:57:37;;;;;;;5.30;2.58;;;23.80;90.70;;;;;;5033084;28;20029;-56
2023/09/18 01:00:06;;;;;;;3.58;1.92;;;23.80;90.70;;;;;;5049427;28;20033;-56
2023/09/18 01:02:32;;;;;;;4.50;2.38;;;23.80;90.70;;;;;;5033735;28;20037;-57
2023/09/18 01:04:57;;;;;;;4.20;2.22;;;23.80;90.80;;;;;;5048928;28;20092;-57
2023/09/18 01:07:23;;;;;;;5.15;2.40;;;23.80;90.90;;;;;;5065981;28;20129;-56
2023/09/18 01:09:49;;;;;;;5.32;2.28;;;23.80;90.90;;;;;;5049341;28;20037;-56
2023/09/18 01:12:17;;;;;;;7.15;2.65;;;23.70;90.90;;;;;;5049405;28;20096;-56
2023/09/18 01:15:01;;;;;;;6.05;2.30;;;23.70;90.90;;;;;;5067058;28;20037;-57
2023/09/18 01:17:27;;;;;;;4.47;2.65;;;23.70;90.90;;;;;;5067373;28;20033;-57
2023/09/18 01:19:52;;;;;;;6.47;2.30;;;23.70;90.90;;;;;;5032764;28;20495;-56
2023/09/18 01:22:18;;;;;;;4.45;2.13;;;23.70;90.90;;;;;;5066843;28;20397;-56
2023/09/18 01:24:45;;;;;;;3.33;2.17;;;23.70;90.90;;;;;;5061310;28;20028;-56
2023/09/18 01:27:16;;;;;;;7.05;2.50;;;23.70;91.20;;;;;;5069178;28;20041;-57
2023/09/18 01:29:42;;;;;;;4.72;2.40;;;23.60;90.90;;;;;;5053301;28;20042;-57
2023/09/18 01:32:08;;;;;;;5.20;2.50;;;23.60;90.90;;;;;;5057727;28;20359;-57
2023/09/18 01:34:39;;;;;;;4.00;2.30;;;23.60;90.90;;;;;;5085676;28;20431;-56
2023/09/18 01:37:05;;;;;;;3.05;2.17;;;23.60;90.90;;;;;;5036080;28;20040;-56
2023/09/18 01:39:31;;;;;;;7.07;2.42;;;23.60;91.00;;;;;;5084317;28;20039;-57
2023/09/18 01:42:05;;;;;;;4.65;2.30;;;23.60;91.00;;;;;;5051174;28;20032;-56
2023/09/18 01:44:31;;;;;;;7.10;2.35;;;23.60;91.00;;;;;;5069573;28;20033;-57
2023/09/18 01:47:04;;;;;;;4.65;2.20;;;23.50;91.10;;;;;;5067565;28;20048;-56
2023/09/18 01:49:35;;;;;;;5.05;2.60;;;23.50;91.10;;;;;;5036330;28;20037;-56
2023/09/18 01:52:01;;;;;;;4.22;2.38;;;23.50;91.20;;;;;;5051951;28;20074;-57
2023/09/18 01:54:26;;;;;;;5.35;2.50;;;23.40;91.30;;;;;;5067549;28;20044;-57
2023/09/18 01:56:53;;;;;;;2.78;2.28;;;23.40;91.30;;;;;;5068422;28;20131;-57
2023/09/18 01:59:19;;;;;;;6.35;2.33;;;23.40;91.40;;;;;;5085262;28;20032;-57
2023/09/18 02:01:44;;;;;;;4.03;2.50;;;23.40;91.40;;;;;;5068469;28;20048;-57
2023/09/18 02:04:10;;;;;;;4.22;2.42;;;23.40;91.40;;;;;;5051800;28;20032;-57
2023/09/18 02:06:35;;;;;;;5.45;2.50;;;23.40;91.40;;;;;;5085197;28;20063;-56
2023/09/18 02:09:01;;;;;;;5.07;2.47;;;23.40;91.40;;;;;;5051826;28;20062;-56
2023/09/18 02:11:27;;;;;;;3.28;2.15;;;23.40;91.40;;;;;;5068263;28;20043;-56
2023/09/18 02:13:53;;;;;;;5.40;2.45;;;23.40;91.40;;;;;;5084975;28;20036;-57
2023/09/18 02:16:21;;;;;;;3.60;2.40;;;23.40;91.50;;;;;;5068113;28;20398;-56
2023/09/18 02:18:46;;;;;;;5.30;2.45;;;23.40;91.50;;;;;;5068615;28;20028;-56
2023/09/18 02:21:20;;;;;;;3.20;2.13;;;23.30;91.50;;;;;;5066941;28;20086;-56
2023/09/18 02:23:45;;;;;;;4.95;2.42;;;23.30;91.60;;;;;;5051883;28;20031;-56
2023/09/18 02:26:11;;;;;;;6.25;2.22;;;23.30;91.70;;;;;;5086214;28;20040;-56
2023/09/18 02:28:36;;;;;;;5.25;2.50;;;23.30;91.60;;;;;;5083780;28;20044;-56
2023/09/18 02:31:02;;;;;;;5.28;2.50;;;23.20;91.60;;;;;;5068076;28;20094;-56
2023/09/18 02:33:28;;;;;;;5.80;2.75;;;23.30;91.70;;;;;;5068040;28;20078;-56
2023/09/18 02:35:53;;;;;;;2.95;2.28;;;23.30;91.60;;;;;;5050345;28;20115;-57
2023/09/18 02:38:19;;;;;;;3.33;2.45;;;23.20;91.60;;;;;;5086113;28;20070;-56
2023/09/18 02:40:44;;;;;;;5.07;2.47;;;23.20;91.60;;;;;;5050159;28;20043;-56
2023/09/18 02:43:10;;;;;;;6.30;2.90;;;23.20;91.70;;;;;;5066627;28;20028;-56
2023/09/18 02:45:36;;;;;;;3.05;2.20;;;23.20;91.70;;;;;;5086104;28;20116;-57
2023/09/18 02:48:01;;;;;;;3.90;2.60;;;23.20;91.70;;;;;;5051169;28;20036;-56
2023/09/18 02:50:27;;;;;;;3.22;2.15;;;23.20;91.70;;;;;;5085060;28;20063;-56
2023/09/18 02:52:52;;;;;;;3.55;2.28;;;23.20;91.70;;;;;;5067778;28;20039;-56
2023/09/18 02:55:18;;;;;;;4.28;2.55;;;23.20;91.70;;;;;;5085800;28;20029;-56
2023/09/18 02:57:43;;;;;;;2.50;2.00;;;23.10;91.80;;;;;;5084653;28;20116;-57
2023/09/18 03:00:09;;;;;;;5.13;2.20;;;23.20;91.80;;;;;;5085758;28;20036;-57
2023/09/18 03:02:35;;;;;;;6.22;2.38;;;23.20;91.80;;;;;;5085566;28;20036;-56
2023/09/18 03:05:01;;;;;;;4.30;2.38;;;23.10;91.80;;;;;;5084718;28;20036;-56
2023/09/18 03:07:29;;;;;;;6.28;2.35;;;23.10;91.80;;;;;;5051289;28;20489;-56
2023/09/18 03:09:55;;;;;;;5.88;2.55;;;23.10;91.80;;;;;;5068094;28;20028;-57
2023/09/18 03:12:22;;;;;;;4.15;2.35;;;23.10;91.80;;;;;;5066544;28;20062;-55
2023/09/18 03:14:48;;;;;;;4.65;2.60;;;23.10;92.00;;;;;;5086136;28;20048;-56
2023/09/18 03:17:13;;;;;;;4.55;2.30;;;23.10;91.70;;;;;;5085434;28;20477;-56
2023/09/18 03:19:39;;;;;;;6.43;2.72;;;23.00;91.70;;;;;;5066226;28;20040;-56
2023/09/18 03:22:04;;;;;;;5.00;2.67;;;23.00;91.70;;;;;;5067327;28;20045;-57
2023/09/18 03:24:30;;;;;;;3.25;2.00;;;23.00;91.70;;;;;;5085649;28;20031;-56
2023/09/18 03:26:55;;;;;;;4.18;2.20;;;23.00;91.70;;;;;;5084665;28;20103;-56
2023/09/18 03:29:21;;;;;;;6.35;2.70;;;23.00;91.70;;;;;;5054465;28;20040;-56
2023/09/18 03:31:46;;;;;;;6.75;2.88;;;22.90;91.70;;;;;;5072012;28;20044;-56
2023/09/18 03:34:13;;;;;;;5.00;2.40;;;23.00;91.70;;;;;;5088134;28;20067;-56
2023/09/18 03:36:39;;;;;;;5.47;2.38;;;23.00;91.70;;;;;;5071221;28;20500;-57
2023/09/18 03:39:05;;;;;;;5.40;2.50;;;22.90;91.70;;;;;;5089210;28;20040;-57
2023/09/18 03:41:33;;;;;;;3.85;2.40;;;22.90;91.80;;;;;;5069678;28;20048;-57
2023/09/18 03:44:00;;;;;;;5.50;2.17;;;22.90;91.80;;;;;;5071494;28;20028;-57
2023/09/18 03:46:26;;;;;;;6.72;2.50;;;22.90;91.90;;;;;;5070835;28;20051;-56
2023/09/18 03:48:51;;;;;;;8.52;2.53;;;22.90;91.80;;;;;;5068479;28;20043;-56
2023/09/18 03:51:18;;;;;;;6.38;2.53;;;22.90;91.80;;;;;;5088761;28;20048;-56
2023/09/18 03:53:44;;;;;;;7.72;2.78;;;22.90;91.80;;;;;;5071108;28;20032;-57
2023/09/18 03:56:09;;;;;;;4.15;2.10;;;22.80;91.70;;;;;;5053112;28;20051;-56
2023/09/18 03:58:35;;;;;;;3.80;2.30;;;22.80;91.80;;;;;;5071005;28;20029;-57
2023/09/18 04:01:01;;;;;;;4.50;2.67;;;22.80;91.70;;;;;;5088506;28;20087;-56
2023/09/18 04:03:26;;;;;;;6.70;2.47;;;22.90;91.80;;;;;;5052755;28;20098;-56
2023/09/18 04:05:52;;;;;;;5.97;2.40;;;22.80;91.80;;;;;;5088445;28;20384;-56
2023/09/18 04:08:17;;;;;;;7.32;2.60;;;22.80;91.80;;;;;;5070316;28;20079;-57
2023/09/18 04:10:44;;;;;;;5.57;2.53;;;22.80;91.80;;;;;;5069072;28;20040;-56
2023/09/18 04:13:10;;;;;;;10.43;2.35;;;22.80;91.80;;;;;;5054608;28;20033;-56
2023/09/18 04:15:37;;;;;;;7.85;2.63;;;22.80;91.80;;;;;;5053786;28;20054;-56
2023/09/18 04:18:06;;;;;;;8.90;2.83;;;22.80;91.80;;;;;;5049139;28;20061;-56
2023/09/18 04:20:32;;;;;;;6.22;2.30;;;22.80;92.10;;;;;;5068131;28;20044;-56
2023/09/18 04:23:17;;;;;;;5.47;2.30;;;22.80;91.80;;;;;;5068346;28;20488;-56
2023/09/18 04:25:42;;;;;;;5.13;2.70;;;22.70;91.80;;;;;;5084384;28;20111;-56
2023/09/18 04:28:08;;;;;;;4.15;2.42;;;22.70;91.80;;;;;;5053460;28;20040;-56
2023/09/18 04:30:33;;;;;;;5.25;2.10;;;22.70;91.80;;;;;;5053286;28;20041;-57
2023/09/18 04:32:59;;;;;;;7.43;2.65;;;22.70;91.80;;;;;;5031975;28;20037;-57
2023/09/18 04:35:25;;;;;;;5.72;2.38;;;22.70;91.80;;;;;;5050056;28;20035;-56
2023/09/18 04:37:55;;;;;;;5.78;2.30;;;22.70;91.80;;;;;;5049811;28;20037;-56
2023/09/18 04:40:20;;;;;;;3.80;2.28;;;22.70;91.80;;;;;;5033734;28;20036;-56
2023/09/18 04:42:46;;;;;;;5.30;2.45;;;22.70;91.80;;;;;;5074846;28;20063;-56
2023/09/18 04:45:11;;;;;;;4.60;2.25;;;22.70;91.80;;;;;;5069731;28;20043;-57
2023/09/18 04:47:37;;;;;;;7.60;2.47;;;22.70;91.80;;;;;;5067058;28;20037;-57
2023/09/18 04:50:05;;;;;;;3.42;2.20;;;22.70;91.90;;;;;;5049378;28;20040;-56
2023/09/18 04:52:30;;;;;;;8.02;2.58;;;22.70;91.90;;;;;;5067377;28;20052;-60
2023/09/18 04:54:57;;;;;;;6.72;2.22;;;22.70;91.90;;;;;;5067166;28;20041;-56
2023/09/18 04:57:23;;;;;;;4.85;2.40;;;22.70;91.90;;;;;;5049450;28;20045;-56
2023/09/18 04:59:49;;;;;;;7.68;2.67;;;22.60;91.80;;;;;;5049678;28;20048;-57
2023/09/18 05:02:14;;;;;;;4.60;2.45;;;22.60;91.90;;;;;;5085387;28;20041;-56
2023/09/18 05:04:40;;;;;;;5.10;2.38;;;22.60;91.90;;;;;;5069490;28;20035;-56
2023/09/18 05:07:05;;;;;;;6.28;2.63;;;22.60;91.90;;;;;;5069310;28;20039;-56
2023/09/18 05:09:32;;;;;;;7.55;2.40;;;22.60;91.90;;;;;;5086215;28;20041;-57
2023/09/18 05:11:58;;;;;;;9.07;2.50;;;22.60;91.90;;;;;;5069003;28;20041;-57
2023/09/18 05:14:23;;;;;;;4.35;2.30;;;22.60;91.90;;;;;;5051434;28;20059;-56
2023/09/18 05:16:49;;;;;;;8.60;2.67;;;22.50;91.90;;;;;;5052485;28;20096;-56
2023/09/18 05:19:14;;;;;;;5.43;2.53;;;22.50;92.00;;;;;;5068186;28;20100;-56
2023/09/18 05:21:40;;;;;;;4.18;2.50;;;22.50;92.00;;;;;;5067568;28;20507;-57
2023/09/18 05:24:05;;;;;;;5.78;2.45;;;22.60;92.00;;;;;;5068908;28;20033;-56
2023/09/18 05:26:31;;;;;;;5.28;2.25;;;22.50;92.00;;;;;;5085659;28;20171;-56
2023/09/18 05:28:57;;;;;;;3.90;2.13;;;22.50;92.00;;;;;;5067637;28;20028;-56
2023/09/18 05:31:24;;;;;;;5.75;2.15;;;22.50;92.00;;;;;;5068416;28;20059;-57
2023/09/18 05:33:50;;;;;;;3.92;2.40;;;22.50;92.00;;;;;;5050945;28;20060;-56
2023/09/18 05:36:15;;;;;;;5.32;2.03;;;22.60;92.00;;;;;;5086489;28;20052;-56
2023/09/18 05:38:42;;;;;;;4.28;2.20;;;22.50;92.00;;;;;;5068679;28;20044;-56
2023/09/18 05:41:07;;;;;;;7.85;2.55;;;22.50;92.00;;;;;;5086565;28;20033;-56
2023/09/18 05:43:33;;;;;;;8.13;2.78;;;22.50;92.10;;;;;;5086477;28;20089;-56
2023/09/18 05:45:59;;;;;;;6.78;2.33;;;22.50;92.10;;;;;;5069248;28;20404;-56
2023/09/18 05:48:24;;;;;;;5.03;2.58;;;22.50;92.10;;;;;;5068901;28;20444;-56
2023/09/18 05:50:52;;;;;;;6.85;2.28;;;22.50;92.10;;;;;;5086199;28;20050;-56
2023/09/18 05:53:18;;;;;;;9.00;2.55;;;22.50;92.10;;;;;;5086457;28;20049;-56
2023/09/18 05:55:44;;;;;;;7.90;2.30;;;22.50;92.10;;;;;;5086237;28;20036;-56
2023/09/18 05:58:10;;;;;;;6.40;2.45;;;22.50;92.10;;;;;;5052296;28;20108;-56
2023/09/18 06:00:36;;;;;;;6.50;2.40;;;22.50;92.20;;;;;;5051940;28;20029;-56
2023/09/18 06:03:02;;;;;;;6.55;2.58;;;22.50;92.20;;;;;;5035632;28;20041;-56
2023/09/18 06:05:30;;;;;;;6.57;2.33;;;22.50;92.30;;;;;;5068208;28;20104;-56
2023/09/18 06:07:56;;;;;;;5.13;2.35;;;22.50;92.50;;;;;;5068585;28;20040;-56
2023/09/18 06:10:21;;;;;;;7.95;3.10;;;22.40;92.60;;;;;;5048782;28;20035;-56
2023/09/18 06:12:47;;;;;;;8.45;2.83;;;22.40;92.70;;;;;;5084079;28;20104;-56
2023/09/18 06:15:13;;;;;;;7.93;2.80;;;22.30;92.90;;;;;;5066010;28;20404;-56
2023/09/18 06:17:39;;;;;;;5.18;2.92;;;22.30;93.00;;;;;;5066634;28;20087;-56
2023/09/18 06:20:07;;;;;;;10.85;3.22;;;22.30;93.10;;;;;;5067831;28;20040;-56
2023/09/18 06:22:33;;;;;;;8.98;2.85;;;22.30;93.20;;;;;;5086029;28;20040;-56
2023/09/18 06:24:58;;;;;;;10.10;3.30;;;22.20;93.20;;;;;;5067159;28;20032;-56
2023/09/18 06:27:24;;;;;;;10.43;3.08;;;22.30;93.30;;;;;;5084951;28;20033;-56
2023/09/18 06:29:50;;;;;;;9.27;2.90;;;22.20;93.40;;;;;;5068065;28;20082;-56
2023/09/18 06:32:15;;;;;;;7.13;3.00;;;22.20;93.40;;;;;;5068145;28;20041;-56
2023/09/18 06:34:43;;;;;;;9.65;3.45;;;22.30;93.50;;;;;;5065679;28;20389;-56
2023/09/18 06:37:12;;;;;;;12.20;3.22;;;22.30;93.60;;;;;;5085120;28;20068;-56
2023/09/18 06:39:38;;;;;;;6.57;2.67;;;22.30;93.60;;;;;;5085741;28;20036;-57
2023/09/18 06:42:03;;;;;;;11.90;2.83;;;22.20;93.60;;;;;;5067170;28;20089;-56
2023/09/18 06:44:29;;;;;;;11.73;3.67;;;22.20;93.70;;;;;;5083773;28;20041;-56
2023/09/18 06:46:54;;;;;;;11.23;3.17;;;22.30;93.70;;;;;;5067640;28;20064;-56
2023/09/18 06:49:20;;;;;;;13.50;3.13;;;22.20;93.80;;;;;;5085688;28;20161;-56
2023/09/18 06:51:46;;;;;;;15.40;4.20;;;22.30;93.90;;;;;;5066802;28;20086;-56
2023/09/18 06:54:11;;;;;;;28.08;5.07;;;22.20;93.90;;;;;;5066483;28;20071;-56
2023/09/18 06:56:37;;;;;;;30.33;4.78;;;22.30;93.90;;;;;;5067091;28;20040;-56
2023/09/18 06:59:02;;;;;;;32.55;4.05;;;22.20;93.90;;;;;;5050976;28;20039;-56
2023/09/18 07:01:28;;;;;;;18.00;4.13;;;22.30;94.30;;;;;;5066432;28;20111;-56
2023/09/18 07:03:53;;;;;;;35.03;6.65;;;22.30;94.10;;;;;;5087759;28;20029;-56
2023/09/18 07:06:20;;;;;;;23.30;4.03;;;22.30;94.10;;;;;;5089422;28;20033;-56
2023/09/18 07:08:46;;;;;;;26.60;5.25;;;22.30;94.20;;;;;;5054311;28;20051;-57
2023/09/18 07:11:11;;;;;;;22.75;4.53;;;22.20;94.20;;;;;;5067219;28;20044;-56
2023/09/18 07:13:40;;;;;;;17.35;4.68;;;22.20;94.30;;;;;;5088305;28;20043;-56
2023/09/18 07:16:05;;;;;;;15.50;4.55;;;22.20;94.40;;;;;;5065562;28;20075;-56
2023/09/18 07:18:31;;;;;;;23.88;3.53;;;22.20;94.40;;;;;;5052081;28;20059;-56
2023/09/18 07:20:57;;;;;;;16.35;4.13;;;22.30;94.40;;;;;;5061308;28;20044;-56
2023/09/18 07:23:22;;;;;;;13.20;3.83;;;22.30;94.40;;;;;;5053556;28;20146;-56
2023/09/18 07:25:48;;;;;;;19.02;3.72;;;22.20;94.30;;;;;;5032953;28;20033;-56
2023/09/18 07:28:18;;;;;;;19.80;4.60;;;22.30;94.30;;;;;;5073174;28;20044;-56
2023/09/18 07:30:44;;;;;;;22.67;5.43;;;22.30;94.30;;;;;;5069002;28;20033;-56
2023/09/18 07:33:15;;;;;;;25.73;4.97;;;22.30;94.40;;;;;;5050647;28;20036;-56
2023/09/18 07:35:40;;;;;;;30.33;5.47;;;22.30;94.30;;;;;;5064414;28;20024;-56
2023/09/18 07:38:06;;;;;;;24.00;4.75;;;22.30;94.30;;;;;;5084272;28;20115;-56
2023/09/18 07:40:31;;;;;;;21.67;4.25;;;22.30;94.30;;;;;;5066735;28;20036;-56
2023/09/18 07:42:57;;;;;;;22.45;4.18;;;22.30;94.30;;;;;;5087828;28;20421;-56
2023/09/18 07:45:25;;;;;;;25.80;5.22;;;22.30;94.30;;;;;;5086668;28;20024;-57
2023/09/18 07:47:51;;;;;;;27.90;5.40;;;22.30;94.30;;;;;;5088366;28;20043;-56
2023/09/18 07:50:17;;;;;;;30.50;5.10;;;22.30;94.30;;;;;;5088647;28;20032;-56
2023/09/18 07:52:43;;;;;;;46.92;6.38;;;22.30;94.30;;;;;;5088559;28;20041;-56
2023/09/18 07:55:09;;;;;;;29.52;5.60;;;22.30;94.20;;;;;;5067672;28;20074;-56
2023/09/18 07:57:35;;;;;;;43.03;5.88;;;22.40;94.20;;;;;;5067458;28;20119;-56
2023/09/18 08:00:12;;;;;;;26.35;5.15;;;22.40;94.10;;;;;;5065510;28;20047;-56
2023/09/18 08:02:39;;;;;;;34.58;5.22;;;22.40;94.10;;;;;;5054324;28;20572;-56
2023/09/18 08:05:05;;;;;;;31.88;5.50;;;22.30;94.10;;;;;;5069425;28;20037;-56
2023/09/18 08:07:31;;;;;;;22.73;4.97;;;22.30;94.10;;;;;;5068758;28;20037;-56
2023/09/18 08:09:56;;;;;;;61.17;7.72;;;22.30;94.20;;;;;;5056189;28;20071;-57
2023/09/18 08:12:23;;;;;;;78.82;10.88;;;22.20;94.20;;;;;;5062013;28;20481;-56
2023/09/18 08:14:50;;;;;;;49.67;7.40;;;22.20;94.20;;;;;;5067564;28;20036;-57
2023/09/18 08:17:15;;;;;;;47.17;7.55;;;22.30;94.30;;;;;;5087793;28;20442;-57
2023/09/18 08:19:41;;;;;;;40.08;7.00;;;22.30;94.30;;;;;;5069790;28;20035;-57
2023/09/18 08:22:07;;;;;;;43.70;7.63;;;22.20;94.30;;;;;;5066459;28;20055;-57
2023/09/18 08:24:33;;;;;;;34.28;6.38;;;22.20;94.30;;;;;;5065350;28;20174;-57
2023/09/18 08:26:59;;;;;;;48.08;6.88;;;22.20;94.30;;;;;;5048232;28;20029;-57
2023/09/18 08:29:24;;;;;;;46.60;6.63;;;22.20;94.40;;;;;;5084127;28;20050;-57
2023/09/18 08:31:50;;;;;;;44.92;6.75;;;22.20;94.40;;;;;;5067766;28;20485;-58
2023/09/18 08:34:16;;;;;;;40.97;6.95;;;22.20;94.40;;;;;;5087422;28;20024;-58
2023/09/18 08:36:42;;;;;;;59.00;8.15;;;22.20;94.40;;;;;;5086328;28;20044;-58
2023/09/18 08:39:07;;;;;;;61.28;8.10;;;22.20;94.40;;;;;;5056885;28;20044;-58
2023/09/18 08:41:33;;;;;;;52.85;8.38;;;22.20;94.40;;;;;;5049313;28;20440;-58
2023/09/18 08:44:03;;;;;;;55.63;7.65;;;22.20;94.50;;;;;;5042806;28;20059;-58
2023/09/18 08:46:30;;;;;;;35.60;7.03;;;22.20;94.50;;;;;;5062918;28;20036;-58
2023/09/18 08:48:56;;;;;;;39.22;7.13;;;22.20;94.40;;;;;;5067750;28;20406;-58
2023/09/18 08:51:22;;;;;;;64.35;7.55;;;22.20;94.50;;;;;;5051625;28;20045;-57
2023/09/18 08:53:48;;;;;;;62.47;7.35;;;22.20;94.50;;;;;;5050975;28;20031;-55
2023/09/18 08:56:13;;;;;;;34.53;5.85;;;22.20;94.50;;;;;;5068226;28;20036;-58
2023/09/18 08:58:42;;;;;;;28.10;6.20;;;22.20;94.40;;;;;;5069440;28;20163;-58
2023/09/18 09:01:11;;;;;;;40.17;6.85;;;22.20;94.40;;;;;;5069900;28;20174;-57
2023/09/18 09:03:38;;;;;;;53.05;7.45;;;22.20;94.30;;;;;;5086103;28;20031;-57
2023/09/18 09:06:03;;;;;;;51.92;8.07;;;22.20;94.30;;;;;;5054115;28;20120;-57
2023/09/18 09:08:29;;;;;;;58.78;6.75;;;22.20;94.30;;;;;;5032666;28;20029;-57
2023/09/18 09:10:57;;;;;;;54.40;8.55;;;22.20;94.30;;;;;;5049115;28;20040;-57
2023/09/18 09:13:26;;;;;;;50.30;7.90;;;22.20;94.30;;;;;;5052115;28;20037;-57
2023/09/18 09:15:53;;;;;;;45.45;7.70;;;22.20;94.30;;;;;;5048149;28;20048;-58
2023/09/18 09:18:19;;;;;;;40.05;7.68;;;22.20;94.40;;;;;;5048830;28;20033;-57
2023/09/18 09:20:59;;;;;;;51.38;6.78;;;22.20;94.50;;;;;;5043983;28;20067;-57
2023/09/18 09:23:25;;;;;;;49.70;6.75;;;22.20;94.50;;;;;;5085948;28;20084;-57
2023/09/18 09:25:51;;;;;;;57.22;6.93;;;22.20;94.50;;;;;;5067444;28;20036;-57
2023/09/18 09:28:25;;;;;;;57.70;7.88;;;22.20;94.50;;;;;;5068050;28;20036;-58
2023/09/18 09:30:51;;;;;;;56.22;7.90;;;22.20;94.60;;;;;;5035139;28;20037;-57
2023/09/18 09:33:18;;;;;;;69.07;8.65;;;22.20;94.50;;;;;;5051608;28;20378;-57
2023/09/18 09:35:43;;;;;;;69.03;9.52;;;22.20;94.60;;;;;;5068427;28;20080;-57
2023/09/18 09:38:10;;;;;;;51.80;8.65;;;22.20;94.60;;;;;;5051353;28;20047;-57
2023/09/18 09:40:40;;;;;;;59.35;8.63;;;22.20;94.60;;;;;;5067114;28;20036;-57
2023/09/18 09:43:07;;;;;;;66.90;9.43;;;22.30;94.60;;;;;;5052234;28;20044;-57
2023/09/18 09:45:35;;;;;;;68.78;9.48;;;22.20;94.60;;;;;;5051572;28;20039;-58
2023/09/18 09:48:04;;;;;;;64.13;8.27;;;22.20;94.60;;;;;;5052063;28;20040;-57
2023/09/18 09:50:29;;;;;;;53.88;8.98;;;22.20;94.60;;;;;;5085141;28;20164;-57
2023/09/18 09:52:55;;;;;;;80.90;10.57;;;22.30;94.60;;;;;;5083831;28;20067;-58
2023/09/18 09:55:25;;;;;;;65.28;9.98;;;22.30;94.60;;;;;;5085026;28;20040;-58
2023/09/18 09:57:57;;;;;;;80.05;11.13;;;22.30;94.60;;;;;;5085625;28;20052;-57
2023/09/18 10:00:27;;;;;;;54.72;10.27;;;22.30;94.70;;;;;;5082135;28;20040;-57
2023/09/18 10:03:11;;;;;;;62.97;10.13;;;22.30;94.90;;;;;;5047445;28;20037;-57
2023/09/18 10:05:38;;;;;;;55.83;9.10;;;22.20;94.60;;;;;;5050464;28;20078;-58
2023/09/18 10:08:15;;;;;;;59.60;9.32;;;22.30;94.60;;;;;;5050161;28;20075;-57
2023/09/18 10:10:51;;;;;;;61.45;10.05;;;22.30;94.60;;;;;;5065865;28;20044;-57
2023/09/18 10:13:20;;;;;;;68.38;10.02;;;22.30;94.60;;;;;;5084028;28;20068;-58
2023/09/18 10:15:46;;;;;;;67.07;9.93;;;22.30;94.60;;;;;;5066121;28;20028;-58
2023/09/18 10:18:22;;;;;;;68.07;9.70;;;22.30;94.60;;;;;;5062325;28;20032;-58
2023/09/18 10:20:48;;;;;;;87.00;10.15;;;22.30;94.60;;;;;;5068576;28;20488;-57
2023/09/18 10:23:27;;;;;;;78.43;10.00;;;22.40;94.70;;;;;;5051238;28;20067;-57
2023/09/18 10:25:59;;;;;;;82.47;11.05;;;22.40;94.70;;;;;;5034285;28;20086;-57
2023/09/18 10:28:27;;;;;;;76.38;11.40;;;22.40;94.70;;;;;;5051005;28;20126;-57
2023/09/18 10:30:54;;;;;;;87.75;11.93;;;22.40;94.70;;;;;;5046828;28;20040;-57
2023/09/18 10:33:20;;;;;;;83.78;11.77;;;22.40;94.70;;;;;;5082637;28;20028;-57
2023/09/18 10:35:47;;;;;;;92.30;11.55;;;22.40;94.60;;;;;;5051574;28;20033;-57
2023/09/18 10:38:12;;;;;;;68.05;11.60;;;22.40;94.70;;;;;;5059813;28;20029;-56
2023/09/18 10:40:38;;;;;;;100.75;11.60;;;22.40;94.70;;;;;;5056908;28;20081;-57
2023/09/18 10:43:04;;;;;;;84.82;10.90;;;22.40;94.70;;;;;;5050519;28;20174;-57
2023/09/18 10:45:29;;;;;;;145.23;18.10;;;22.50;94.70;;;;;;5051677;28;20512;-57
2023/09/18 10:47:55;;;;;;;96.60;12.55;;;22.40;94.70;;;;;;5065725;28;20032;-57
2023/09/18 10:50:27;;;;;;;94.30;13.30;;;22.40;94.80;;;;;;5051964;28;20044;-56
2023/09/18 10:52:53;;;;;;;128.45;15.82;;;22.40;94.80;;;;;;5062169;28;20080;-57
2023/09/18 10:55:19;;;;;;;125.80;15.75;;;22.40;94.70;;;;;;5049658;28;20041;-57
2023/09/18 10:57:52;;;;;;;118.47;13.75;;;22.50;94.70;;;;;;5051144;28;20048;-57
2023/09/18 11:00:22;;;;;;;120.07;16.20;;;22.50;94.60;;;;;;5066173;28;20087;-57
2023/09/18 11:02:54;;;;;;;118.88;14.80;;;22.50;94.60;;;;;;5078647;28;20048;-57
2023/09/18 11:05:29;;;;;;;99.00;11.98;;;22.50;94.60;;;;;;5051940;28;20024;-57
2023/09/18 11:08:23;;;;;;;114.72;13.13;;;22.40;94.60;;;;;;5050847;28;20037;-57
2023/09/18 11:10:58;;;;;;;109.03;12.98;;;22.40;94.60;;;;;;5087688;28;20029;-57
2023/09/18 11:13:55;;;;;;;136.25;17.63;;;22.50;94.50;;;;;;5088152;28;20060;-57
2023/09/18 11:16:26;;;;;;;;;;;22.40;94.20;;;;;;5072436;28;20044;-57
2023/09/18 11:19:03;;;;;;;127.82;13.95;;;22.40;94.10;;;;;;5085222;28;19908;-57
2023/09/18 11:21:32;;;;;;;95.03;10.88;;;22.50;94.00;;;;;;5070681;28;20144;-57
2023/09/18 11:23:58;;;;;;;79.28;10.98;;;22.50;93.90;;;;;;5070595;28;20032;-55
2023/09/18 11:26:23;;;;;;;73.15;9.80;;;22.50;93.80;;;;;;5068735;28;20052;-57
2023/09/18 11:28:50;;;;;;;103.30;12.85;;;22.50;93.80;;;;;;5053927;28;20531;-57
2023/09/18 11:31:16;;;;;;;69.47;10.30;;;22.50;93.60;;;;;;5067438;28;20048;-62
2023/09/18 11:33:45;;;;;;;70.63;9.02;;;22.40;93.50;;;;;;5070364;28;20595;-57
2023/09/18 11:36:32;;;;;;;69.03;9.95;;;22.50;93.40;;;;;;5067166;28;20096;-57
2023/09/18 11:39:09;;;;;;;94.95;11.75;;;22.50;93.30;;;;;;5070702;28;20037;-57
2023/09/18 11:41:38;;;;;;;72.43;10.77;;;22.50;93.20;;;;;;5083400;28;20086;-57
2023/09/18 11:44:19;;;;;;;73.43;10.23;;;22.50;93.10;;;;;;5069196;28;20032;-57
2023/09/18 11:46:51;;;;;;;81.00;10.20;;;22.60;93.00;;;;;;5084732;28;20043;-55
2023/09/18 11:49:21;;;;;;;62.05;10.02;;;22.60;93.00;;;;;;5066498;28;20038;-58
2023/09/18 11:51:47;;;;;;;83.65;10.45;;;22.60;92.90;;;;;;5055857;28;20051;-57
2023/09/18 11:54:12;;;;;;;82.18;10.23;;;22.60;93.00;;;;;;5049133;28;20120;-57
2023/09/18 11:56:39;;;;;;;70.88;9.88;;;22.60;93.00;;;;;;5054537;28;20060;-57
2023/09/18 11:59:06;;;;;;;85.25;12.10;;;22.60;93.00;;;;;;5088640;28;20041;-57
2023/09/18 12:01:35;;;;;;;70.78;10.50;;;22.70;93.10;;;;;;5053043;28;20036;-57
2023/09/18 12:04:01;;;;;;;52.42;9.52;;;22.60;93.00;;;;;;5050416;28;20028;-57
2023/09/18 12:06:27;;;;;;;70.47;10.57;;;22.60;93.00;;;;;;5086856;28;20040;-57
2023/09/18 12:08:53;;;;;;;79.53;10.00;;;22.60;92.90;;;;;;5049760;28;20032;-57
2023/09/18 12:11:19;;;;;;;96.20;12.77;;;22.70;93.00;;;;;;5052891;28;20039;-57
2023/09/18 12:13:46;;;;;;;86.97;11.75;;;22.70;93.10;;;;;;5052015;28;20044;-57
2023/09/18 12:16:11;;;;;;;74.07;11.90;;;22.70;93.10;;;;;;5035480;28;20048;-57
2023/09/18 12:18:38;;;;;;;113.15;14.77;;;22.70;93.20;;;;;;5068886;28;20049;-57
2023/09/18 12:21:06;;;;;;;112.32;15.32;;;22.70;93.30;;;;;;5051239;28;20042;-57
2023/09/18 12:23:43;;;;;;;109.90;14.50;;;22.60;93.40;;;;;;5067778;28;20036;-57
2023/09/18 12:26:13;;;;;;;102.97;15.60;;;22.70;93.50;;;;;;5086448;28;20055;-57
2023/09/18 12:28:43;;;;;;;124.85;15.20;;;22.70;93.80;;;;;;5069005;28;20084;-57
2023/09/18 12:31:15;;;;;;;98.63;13.05;;;22.70;94.00;;;;;;5086609;28;20064;-57
2023/09/18 12:33:43;;;;;;;112.90;14.85;;;22.70;93.90;;;;;;5050573;28;20044;-57
2023/09/18 12:36:09;;;;;;;127.70;14.32;;;22.70;93.90;;;;;;5062050;28;20048;-57
2023/09/18 12:38:36;;;;;;;101.63;13.75;;;22.70;93.90;;;;;;5077577;23;20045;-86
2023/09/18 12:41:09;;;;;;;106.90;13.80;;;22.70;94.20;;;;;;5030592;28;20109;-86